sensor_id;sensor_type;location;lat;lon;timestamp;temperature;humidity
18392;DHT22;9322;50.932;5.318;2022-07-23T00:00:12;17.10;99.90
18392;DHT22;9322;50.932;5.318;2022-07-23T00:02:37;17.10;99.90
18392;DHT22;9322;50.932;5.318;2022-07-23T00:05:04;17.10;99.90
18392;DHT22;9322;50.932;5.318;2022-07-23T00:07:29;17.10;99.90
18392;DHT22;9322;50.932;5.318;2022-07-23T00:09:55;16.90;99.90
18392;DHT22;9322;50.932;5.318;2022-07-23T00:12:21;17.00;99.90
18392;DHT22;9322;50.932;5.318;2022-07-23T00:14:46;17.00;99.90
18392;DHT22;9322;50.932;5.318;2022-07-23T00:17:12;17.00;99.90
18392;DHT22;9322;50.932;5.318;2022-07-23T00:19:38;16.90;99.90
18392;DHT22;9322;50.932;5.318;2022-07-23T00:22:03;17.00;99.90
18392;DHT22;9322;50.932;5.318;2022-07-23T00:24:29;17.00;99.90
18392;DHT22;9322;50.932;5.318;2022-07-23T00:26:55;16.90;99.90
18392;DHT22;9322;50.932;5.318;2022-07-23T00:29:20;16.80;99.90
18392;DHT22;9322;50.932;5.318;2022-07-23T00:31:46;16.90;99.90
18392;DHT22;9322;50.932;5.318;2022-07-23T00:34:12;17.00;99.90
18392;DHT22;9322;50.932;5.318;2022-07-23T00:36:37;16.90;99.90
18392;DHT22;9322;50.932;5.318;2022-07-23T00:39:03;17.00;99.90
18392;DHT22;9322;50.932;5.318;2022-07-23T00:41:29;17.00;99.90
18392;DHT22;9322;50.932;5.318;2022-07-23T00:43:55;17.00;99.90
18392;DHT22;9322;50.932;5.318;2022-07-23T00:46:21;16.90;99.90
18392;DHT22;9322;50.932;5.318;2022-07-23T00:48:48;16.80;99.90
18392;DHT22;9322;50.932;5.318;2022-07-23T00:51:17;16.80;99.90
18392;DHT22;9322;50.932;5.318;2022-07-23T00:53:44;16.80;99.90
18392;DHT22;9322;50.932;5.318;2022-07-23T00:56:10;16.80;99.90
18392;DHT22;9322;50.932;5.318;2022-07-23T00:58:36;16.80;99.90
18392;DHT22;9322;50.932;5.318;2022-07-23T01:01:04;16.70;99.90
18392;DHT22;9322;50.932;5.318;2022-07-23T01:03:30;16.60;99.90
18392;DHT22;9322;50.932;5.318;2022-07-23T01:05:55;16.60;99.90
18392;DHT22;9322;50.932;5.318;2022-07-23T01:08:22;16.50;99.90
18392;DHT22;9322;50.932;5.318;2022-07-23T01:10:48;16.60;99.90
18392;DHT22;9322;50.932;5.318;2022-07-23T01:13:14;16.60;99.90
18392;DHT22;9322;50.932;5.318;2022-07-23T01:15:40;16.60;99.90
18392;DHT22;9322;50.932;5.318;2022-07-23T01:18:07;16.60;99.90
18392;DHT22;9322;50.932;5.318;2022-07-23T01:20:33;16.50;99.90
18392;DHT22;9322;50.932;5.318;2022-07-23T01:22:59;16.40;99.90
18392;DHT22;9322;50.932;5.318;2022-07-23T01:25:25;16.50;99.90
18392;DHT22;9322;50.932;5.318;2022-07-23T01:27:52;16.40;99.90
18392;DHT22;9322;50.932;5.318;2022-07-23T01:30:19;16.40;99.90
18392;DHT22;9322;50.932;5.318;2022-07-23T01:32:44;16.40;99.90
18392;DHT22;9322;50.932;5.318;2022-07-23T01:35:11;16.40;99.90
18392;DHT22;9322;50.932;5.318;2022-07-23T01:37:37;16.40;99.90
18392;DHT22;9322;50.932;5.318;2022-07-23T01:40:04;16.40;99.90
18392;DHT22;9322;50.932;5.318;2022-07-23T01:42:30;16.40;99.90
18392;DHT22;9322;50.932;5.318;2022-07-23T01:44:55;16.40;99.90
18392;DHT22;9322;50.932;5.318;2022-07-23T01:47:21;16.50;99.90
18392;DHT22;9322;50.932;5.318;2022-07-23T01:49:47;16.50;99.90
18392;DHT22;9322;50.932;5.318;2022-07-23T01:52:13;16.50;99.90
18392;DHT22;9322;50.932;5.318;2022-07-23T01:54:39;16.40;99.90
18392;DHT22;9322;50.932;5.318;2022-07-23T01:57:05;16.30;99.90
18392;DHT22;9322;50.932;5.318;2022-07-23T01:59:31;16.20;99.90
18392;DHT22;9322;50.932;5.318;2022-07-23T02:01:57;16.10;99.90
18392;DHT22;9322;50.932;5.318;2022-07-23T02:04:24;16.10;99.90
18392;DHT22;9322;50.932;5.318;2022-07-23T02:06:50;16.00;99.90
18392;DHT22;9322;50.932;5.318;2022-07-23T02:09:16;16.00;99.90
18392;DHT22;9322;50.932;5.318;2022-07-23T02:11:42;16.10;99.90
18392;DHT22;9322;50.932;5.318;2022-07-23T02:14:08;16.00;99.90
18392;DHT22;9322;50.932;5.318;2022-07-23T02:16:34;16.00;99.90
18392;DHT22;9322;50.932;5.318;2022-07-23T02:18:59;16.00;99.90
18392;DHT22;9322;50.932;5.318;2022-07-23T02:21:25;16.00;99.90
18392;DHT22;9322;50.932;5.318;2022-07-23T02:23:51;16.00;99.90
18392;DHT22;9322;50.932;5.318;2022-07-23T02:26:17;16.00;99.90
18392;DHT22;9322;50.932;5.318;2022-07-23T02:28:42;16.00;99.90
18392;DHT22;9322;50.932;5.318;2022-07-23T02:31:08;15.90;99.90
18392;DHT22;9322;50.932;5.318;2022-07-23T02:33:34;15.90;99.90
18392;DHT22;9322;50.932;5.318;2022-07-23T02:36:00;15.80;99.90
18392;DHT22;9322;50.932;5.318;2022-07-23T02:38:26;15.80;99.90
18392;DHT22;9322;50.932;5.318;2022-07-23T02:40:51;15.90;99.90
18392;DHT22;9322;50.932;5.318;2022-07-23T02:43:17;15.80;99.90
18392;DHT22;9322;50.932;5.318;2022-07-23T02:45:43;15.80;99.90
18392;DHT22;9322;50.932;5.318;2022-07-23T02:48:09;15.80;99.90
18392;DHT22;9322;50.932;5.318;2022-07-23T02:50:34;15.90;99.90
18392;DHT22;9322;50.932;5.318;2022-07-23T02:53:00;15.90;99.90
18392;DHT22;9322;50.932;5.318;2022-07-23T02:55:26;16.00;99.90
18392;DHT22;9322;50.932;5.318;2022-07-23T02:57:52;15.90;99.90
18392;DHT22;9322;50.932;5.318;2022-07-23T03:00:18;15.90;99.90
18392;DHT22;9322;50.932;5.318;2022-07-23T03:02:43;15.90;99.90
18392;DHT22;9322;50.932;5.318;2022-07-23T03:05:10;15.80;99.90
18392;DHT22;9322;50.932;5.318;2022-07-23T03:07:35;15.80;99.90
18392;DHT22;9322;50.932;5.318;2022-07-23T03:10:01;15.70;99.90
18392;DHT22;9322;50.932;5.318;2022-07-23T03:12:27;15.50;99.90
18392;DHT22;9322;50.932;5.318;2022-07-23T03:14:52;15.50;99.90
18392;DHT22;9322;50.932;5.318;2022-07-23T03:17:18;15.60;99.90
18392;DHT22;9322;50.932;5.318;2022-07-23T03:19:44;15.60;99.90
18392;DHT22;9322;50.932;5.318;2022-07-23T03:22:09;15.50;99.90
18392;DHT22;9322;50.932;5.318;2022-07-23T03:24:35;15.40;99.90
18392;DHT22;9322;50.932;5.318;2022-07-23T03:27:20;15.50;99.90
18392;DHT22;9322;50.932;5.318;2022-07-23T03:29:45;15.40;99.90
18392;DHT22;9322;50.932;5.318;2022-07-23T03:32:11;15.40;99.90
18392;DHT22;9322;50.932;5.318;2022-07-23T03:34:37;15.40;99.90
18392;DHT22;9322;50.932;5.318;2022-07-23T03:37:03;15.40;99.90
18392;DHT22;9322;50.932;5.318;2022-07-23T03:39:28;15.30;99.90
18392;DHT22;9322;50.932;5.318;2022-07-23T03:41:54;15.30;99.90
18392;DHT22;9322;50.932;5.318;2022-07-23T03:44:20;15.20;99.90
18392;DHT22;9322;50.932;5.318;2022-07-23T03:46:45;15.10;99.90
18392;DHT22;9322;50.932;5.318;2022-07-23T03:49:11;15.20;99.90
18392;DHT22;9322;50.932;5.318;2022-07-23T03:51:37;15.30;99.90
18392;DHT22;9322;50.932;5.318;2022-07-23T03:54:03;15.50;99.90
18392;DHT22;9322;50.932;5.318;2022-07-23T03:56:28;15.20;99.90
18392;DHT22;9322;50.932;5.318;2022-07-23T03:58:54;15.10;99.90
18392;DHT22;9322;50.932;5.318;2022-07-23T04:01:20;15.20;99.90
18392;DHT22;9322;50.932;5.318;2022-07-23T04:03:45;15.10;99.90
18392;DHT22;9322;50.932;5.318;2022-07-23T04:06:12;15.10;99.90
18392;DHT22;9322;50.932;5.318;2022-07-23T04:08:37;15.10;99.90
18392;DHT22;9322;50.932;5.318;2022-07-23T04:11:03;15.20;99.90
18392;DHT22;9322;50.932;5.318;2022-07-23T04:13:29;15.20;99.90
18392;DHT22;9322;50.932;5.318;2022-07-23T04:15:55;15.20;99.90
18392;DHT22;9322;50.932;5.318;2022-07-23T04:18:21;15.20;99.90
18392;DHT22;9322;50.932;5.318;2022-07-23T04:20:50;15.20;99.90
18392;DHT22;9322;50.932;5.318;2022-07-23T04:23:16;15.30;99.90
18392;DHT22;9322;50.932;5.318;2022-07-23T04:25:42;15.40;99.90
18392;DHT22;9322;50.932;5.318;2022-07-23T04:28:08;15.40;99.90
18392;DHT22;9322;50.932;5.318;2022-07-23T04:30:34;15.50;99.90
18392;DHT22;9322;50.932;5.318;2022-07-23T04:33:00;15.50;99.90
18392;DHT22;9322;50.932;5.318;2022-07-23T04:35:26;15.50;99.90
18392;DHT22;9322;50.932;5.318;2022-07-23T04:37:52;15.50;99.90
18392;DHT22;9322;50.932;5.318;2022-07-23T04:40:17;15.60;99.90
18392;DHT22;9322;50.932;5.318;2022-07-23T04:42:43;15.60;99.90
18392;DHT22;9322;50.932;5.318;2022-07-23T04:45:09;15.70;99.90
18392;DHT22;9322;50.932;5.318;2022-07-23T04:47:35;15.80;99.90
18392;DHT22;9322;50.932;5.318;2022-07-23T04:50:01;15.80;99.90
18392;DHT22;9322;50.932;5.318;2022-07-23T04:52:26;15.90;99.90
18392;DHT22;9322;50.932;5.318;2022-07-23T04:54:52;15.90;99.90
18392;DHT22;9322;50.932;5.318;2022-07-23T04:57:18;16.30;99.90
18392;DHT22;9322;50.932;5.318;2022-07-23T04:59:43;16.10;99.90
18392;DHT22;9322;50.932;5.318;2022-07-23T05:02:09;16.30;99.90
18392;DHT22;9322;50.932;5.318;2022-07-23T05:04:35;17.10;99.90
18392;DHT22;9322;50.932;5.318;2022-07-23T05:07:01;17.50;99.90
18392;DHT22;9322;50.932;5.318;2022-07-23T05:09:26;18.40;99.90
18392;DHT22;9322;50.932;5.318;2022-07-23T05:11:52;19.20;99.90
18392;DHT22;9322;50.932;5.318;2022-07-23T05:14:18;19.90;99.90
18392;DHT22;9322;50.932;5.318;2022-07-23T05:16:43;20.60;99.90
18392;DHT22;9322;50.932;5.318;2022-07-23T05:19:09;20.80;99.90
18392;DHT22;9322;50.932;5.318;2022-07-23T05:21:35;21.10;99.90
18392;DHT22;9322;50.932;5.318;2022-07-23T05:24:00;21.00;99.90
18392;DHT22;9322;50.932;5.318;2022-07-23T05:26:26;20.90;99.90
18392;DHT22;9322;50.932;5.318;2022-07-23T05:28:52;20.60;99.90
18392;DHT22;9322;50.932;5.318;2022-07-23T05:31:18;21.30;99.90
18392;DHT22;9322;50.932;5.318;2022-07-23T05:33:44;22.20;96.30
18392;DHT22;9322;50.932;5.318;2022-07-23T05:36:10;22.60;91.40
18392;DHT22;9322;50.932;5.318;2022-07-23T05:38:36;23.10;82.00
18392;DHT22;9322;50.932;5.318;2022-07-23T05:41:01;23.20;82.40
18392;DHT22;9322;50.932;5.318;2022-07-23T05:43:28;23.10;79.40
18392;DHT22;9322;50.932;5.318;2022-07-23T05:45:53;23.30;81.20
18392;DHT22;9322;50.932;5.318;2022-07-23T05:48:19;23.70;78.00
18392;DHT22;9322;50.932;5.318;2022-07-23T05:50:47;23.70;76.00
18392;DHT22;9322;50.932;5.318;2022-07-23T05:53:13;23.30;76.70
18392;DHT22;9322;50.932;5.318;2022-07-23T05:55:38;23.60;78.10
18392;DHT22;9322;50.932;5.318;2022-07-23T05:58:04;23.90;76.20
18392;DHT22;9322;50.932;5.318;2022-07-23T06:00:30;24.20;71.50
18392;DHT22;9322;50.932;5.318;2022-07-23T06:02:56;24.40;69.80
18392;DHT22;9322;50.932;5.318;2022-07-23T06:05:22;24.20;71.80
18392;DHT22;9322;50.932;5.318;2022-07-23T06:07:48;24.80;69.50
18392;DHT22;9322;50.932;5.318;2022-07-23T06:10:14;25.40;65.30
18392;DHT22;9322;50.932;5.318;2022-07-23T06:12:40;26.00;63.00
18392;DHT22;9322;50.932;5.318;2022-07-23T06:15:07;26.60;59.40
18392;DHT22;9322;50.932;5.318;2022-07-23T06:17:32;27.40;56.30
18392;DHT22;9322;50.932;5.318;2022-07-23T06:19:58;27.90;55.10
18392;DHT22;9322;50.932;5.318;2022-07-23T06:22:24;28.20;52.20
18392;DHT22;9322;50.932;5.318;2022-07-23T06:24:50;28.50;52.70
18392;DHT22;9322;50.932;5.318;2022-07-23T06:27:17;28.90;51.40
18392;DHT22;9322;50.932;5.318;2022-07-23T06:29:43;29.00;50.40
18392;DHT22;9322;50.932;5.318;2022-07-23T06:32:08;29.20;51.10
18392;DHT22;9322;50.932;5.318;2022-07-23T06:34:34;29.20;50.70
18392;DHT22;9322;50.932;5.318;2022-07-23T06:37:00;29.70;49.40
18392;DHT22;9322;50.932;5.318;2022-07-23T06:39:26;29.80;50.00
18392;DHT22;9322;50.932;5.318;2022-07-23T06:41:52;30.10;47.90
18392;DHT22;9322;50.932;5.318;2022-07-23T06:44:18;29.70;49.60
18392;DHT22;9322;50.932;5.318;2022-07-23T06:46:43;29.70;50.00
18392;DHT22;9322;50.932;5.318;2022-07-23T06:49:11;29.90;50.10
18392;DHT22;9322;50.932;5.318;2022-07-23T06:51:37;30.30;46.80
18392;DHT22;9322;50.932;5.318;2022-07-23T06:54:04;30.40;45.60
18392;DHT22;9322;50.932;5.318;2022-07-23T06:56:29;30.60;45.60
18392;DHT22;9322;50.932;5.318;2022-07-23T06:58:55;31.00;44.20
18392;DHT22;9322;50.932;5.318;2022-07-23T07:01:21;31.20;43.20
18392;DHT22;9322;50.932;5.318;2022-07-23T07:03:47;30.60;45.30
18392;DHT22;9322;50.932;5.318;2022-07-23T07:06:13;29.80;46.90
18392;DHT22;9322;50.932;5.318;2022-07-23T07:08:39;29.10;49.30
18392;DHT22;9322;50.932;5.318;2022-07-23T07:11:04;28.80;50.40
18392;DHT22;9322;50.932;5.318;2022-07-23T07:13:30;29.70;48.10
18392;DHT22;9322;50.932;5.318;2022-07-23T07:15:56;30.40;45.30
18392;DHT22;9322;50.932;5.318;2022-07-23T07:18:22;30.70;46.20
18392;DHT22;9322;50.932;5.318;2022-07-23T07:20:48;31.70;44.20
18392;DHT22;9322;50.932;5.318;2022-07-23T07:23:14;32.50;41.90
18392;DHT22;9322;50.932;5.318;2022-07-23T07:25:40;32.60;41.60
18392;DHT22;9322;50.932;5.318;2022-07-23T07:28:06;32.90;41.40
18392;DHT22;9322;50.932;5.318;2022-07-23T07:30:31;32.80;42.00
18392;DHT22;9322;50.932;5.318;2022-07-23T07:32:59;32.80;42.20
18392;DHT22;9322;50.932;5.318;2022-07-23T07:35:25;33.40;40.20
18392;DHT22;9322;50.932;5.318;2022-07-23T07:37:51;33.40;39.90
18392;DHT22;9322;50.932;5.318;2022-07-23T07:40:17;32.50;40.80
18392;DHT22;9322;50.932;5.318;2022-07-23T07:42:51;33.20;38.80
18392;DHT22;9322;50.932;5.318;2022-07-23T07:45:19;33.70;38.60
18392;DHT22;9322;50.932;5.318;2022-07-23T07:47:45;34.00;38.70
18392;DHT22;9322;50.932;5.318;2022-07-23T07:50:11;34.20;37.80
18392;DHT22;9322;50.932;5.318;2022-07-23T07:52:36;34.60;37.60
18392;DHT22;9322;50.932;5.318;2022-07-23T07:55:04;33.90;39.70
18392;DHT22;9322;50.932;5.318;2022-07-23T07:57:29;33.70;39.00
18392;DHT22;9322;50.932;5.318;2022-07-23T07:59:55;34.80;37.20
18392;DHT22;9322;50.932;5.318;2022-07-23T08:02:21;33.90;38.60
18392;DHT22;9322;50.932;5.318;2022-07-23T08:04:46;33.80;39.30
18392;DHT22;9322;50.932;5.318;2022-07-23T08:07:14;34.30;37.90
18392;DHT22;9322;50.932;5.318;2022-07-23T08:09:40;35.00;36.30
18392;DHT22;9322;50.932;5.318;2022-07-23T08:12:06;34.80;36.60
18392;DHT22;9322;50.932;5.318;2022-07-23T08:14:32;35.50;35.10
18392;DHT22;9322;50.932;5.318;2022-07-23T08:16:57;35.40;35.80
18392;DHT22;9322;50.932;5.318;2022-07-23T08:19:23;35.00;37.60
18392;DHT22;9322;50.932;5.318;2022-07-23T08:21:49;35.40;36.30
18392;DHT22;9322;50.932;5.318;2022-07-23T08:24:14;36.40;35.00
18392;DHT22;9322;50.932;5.318;2022-07-23T08:26:40;36.40;33.70
18392;DHT22;9322;50.932;5.318;2022-07-23T08:29:06;35.10;36.00
18392;DHT22;9322;50.932;5.318;2022-07-23T08:31:32;34.40;36.60
18392;DHT22;9322;50.932;5.318;2022-07-23T08:33:59;34.70;35.80
18392;DHT22;9322;50.932;5.318;2022-07-23T08:36:25;34.60;35.70
18392;DHT22;9322;50.932;5.318;2022-07-23T08:38:54;35.40;35.60
18392;DHT22;9322;50.932;5.318;2022-07-23T08:41:20;35.70;35.20
18392;DHT22;9322;50.932;5.318;2022-07-23T08:43:46;36.40;33.90
18392;DHT22;9322;50.932;5.318;2022-07-23T08:46:13;36.20;34.30
18392;DHT22;9322;50.932;5.318;2022-07-23T08:48:39;36.80;34.30
18392;DHT22;9322;50.932;5.318;2022-07-23T08:51:06;36.60;33.70
18392;DHT22;9322;50.932;5.318;2022-07-23T08:53:33;36.20;33.90
18392;DHT22;9322;50.932;5.318;2022-07-23T08:56:02;36.00;34.50
18392;DHT22;9322;50.932;5.318;2022-07-23T08:58:28;36.10;33.60
18392;DHT22;9322;50.932;5.318;2022-07-23T09:00:54;37.60;32.30
18392;DHT22;9322;50.932;5.318;2022-07-23T09:03:31;37.80;32.20
18392;DHT22;9322;50.932;5.318;2022-07-23T09:05:58;38.30;32.40
18392;DHT22;9322;50.932;5.318;2022-07-23T09:11:04;37.10;35.00
18392;DHT22;9322;50.932;5.318;2022-07-23T09:16:16;36.30;34.10
18392;DHT22;9322;50.932;5.318;2022-07-23T09:21:13;37.00;32.90
18392;DHT22;9322;50.932;5.318;2022-07-23T09:23:45;37.60;33.50
18392;DHT22;9322;50.932;5.318;2022-07-23T09:26:28;38.20;32.20
18392;DHT22;9322;50.932;5.318;2022-07-23T09:31:25;38.60;31.80
18392;DHT22;9322;50.932;5.318;2022-07-23T09:34:07;38.50;31.10
18392;DHT22;9322;50.932;5.318;2022-07-23T09:36:33;37.40;32.90
18392;DHT22;9322;50.932;5.318;2022-07-23T09:38:59;37.50;32.20
18392;DHT22;9322;50.932;5.318;2022-07-23T09:41:24;38.40;31.20
18392;DHT22;9322;50.932;5.318;2022-07-23T09:43:55;39.00;30.30
18392;DHT22;9322;50.932;5.318;2022-07-23T09:46:30;37.70;30.90
18392;DHT22;9322;50.932;5.318;2022-07-23T09:48:56;38.20;30.40
18392;DHT22;9322;50.932;5.318;2022-07-23T09:51:23;39.00;30.00
18392;DHT22;9322;50.932;5.318;2022-07-23T09:53:58;39.30;29.40
18392;DHT22;9322;50.932;5.318;2022-07-23T09:56:23;38.70;30.10
18392;DHT22;9322;50.932;5.318;2022-07-23T09:58:51;38.70;31.20
18392;DHT22;9322;50.932;5.318;2022-07-23T10:01:18;39.20;30.20
18392;DHT22;9322;50.932;5.318;2022-07-23T10:03:46;39.60;29.90
18392;DHT22;9322;50.932;5.318;2022-07-23T10:06:13;38.90;29.50
18392;DHT22;9322;50.932;5.318;2022-07-23T10:08:41;38.90;30.90
18392;DHT22;9322;50.932;5.318;2022-07-23T10:11:09;37.90;31.70
18392;DHT22;9322;50.932;5.318;2022-07-23T10:13:36;39.00;30.10
18392;DHT22;9322;50.932;5.318;2022-07-23T10:16:15;39.70;29.20
18392;DHT22;9322;50.932;5.318;2022-07-23T10:18:40;38.70;30.30
18392;DHT22;9322;50.932;5.318;2022-07-23T10:21:08;38.30;30.50
18392;DHT22;9322;50.932;5.318;2022-07-23T10:23:39;38.70;30.10
18392;DHT22;9322;50.932;5.318;2022-07-23T10:26:51;39.90;28.20
18392;DHT22;9322;50.932;5.318;2022-07-23T10:29:28;40.20;27.60
18392;DHT22;9322;50.932;5.318;2022-07-23T10:31:58;39.30;29.60
18392;DHT22;9322;50.932;5.318;2022-07-23T10:34:47;38.80;29.50
18392;DHT22;9322;50.932;5.318;2022-07-23T10:37:34;38.50;30.40
18392;DHT22;9322;50.932;5.318;2022-07-23T10:40:19;39.40;28.50
18392;DHT22;9322;50.932;5.318;2022-07-23T10:42:46;39.60;27.80
18392;DHT22;9322;50.932;5.318;2022-07-23T10:45:26;39.90;26.70
18392;DHT22;9322;50.932;5.318;2022-07-23T10:47:53;39.10;28.90
18392;DHT22;9322;50.932;5.318;2022-07-23T10:50:29;38.30;29.80
18392;DHT22;9322;50.932;5.318;2022-07-23T10:58:02;37.20;29.80
18392;DHT22;9322;50.932;5.318;2022-07-23T11:00:29;37.80;29.80
18392;DHT22;9322;50.932;5.318;2022-07-23T11:05:51;38.00;27.90
18392;DHT22;9322;50.932;5.318;2022-07-23T11:08:18;38.50;26.60
18392;DHT22;9322;50.932;5.318;2022-07-23T11:13:32;39.40;27.30
18392;DHT22;9322;50.932;5.318;2022-07-23T11:32:00;39.90;25.00
18392;DHT22;9322;50.932;5.318;2022-07-23T11:34:38;39.00;25.20
18392;DHT22;9322;50.932;5.318;2022-07-23T11:37:06;39.00;25.10
18392;DHT22;9322;50.932;5.318;2022-07-23T11:39:33;39.80;23.50
18392;DHT22;9322;50.932;5.318;2022-07-23T11:42:01;40.00;25.00
18392;DHT22;9322;50.932;5.318;2022-07-23T11:47:01;38.60;24.00
18392;DHT22;9322;50.932;5.318;2022-07-23T11:49:28;39.10;24.90
18392;DHT22;9322;50.932;5.318;2022-07-23T11:52:10;39.50;23.80
18392;DHT22;9322;50.932;5.318;2022-07-23T11:57:20;38.10;25.70
18392;DHT22;9322;50.932;5.318;2022-07-23T11:59:47;38.50;25.10
18392;DHT22;9322;50.932;5.318;2022-07-23T12:02:16;38.50;25.80
18392;DHT22;9322;50.932;5.318;2022-07-23T12:04:44;39.10;24.00
18392;DHT22;9322;50.932;5.318;2022-07-23T12:12:58;34.60;28.30
18392;DHT22;9322;50.932;5.318;2022-07-23T12:15:30;32.90;30.00
18392;DHT22;9322;50.932;5.318;2022-07-23T12:18:02;32.60;30.50
18392;DHT22;9322;50.932;5.318;2022-07-23T12:20:31;33.10;32.40
18392;DHT22;9322;50.932;5.318;2022-07-23T12:22:58;32.90;32.70
18392;DHT22;9322;50.932;5.318;2022-07-23T12:25:29;33.40;31.70
18392;DHT22;9322;50.932;5.318;2022-07-23T12:30:45;33.30;32.50
18392;DHT22;9322;50.932;5.318;2022-07-23T12:33:14;33.50;31.60
18392;DHT22;9322;50.932;5.318;2022-07-23T12:35:43;33.20;32.30
18392;DHT22;9322;50.932;5.318;2022-07-23T12:38:16;32.90;30.90
18392;DHT22;9322;50.932;5.318;2022-07-23T12:40:45;32.90;30.80
18392;DHT22;9322;50.932;5.318;2022-07-23T12:50:56;30.80;33.20
18392;DHT22;9322;50.932;5.318;2022-07-23T12:53:46;31.30;33.70
18392;DHT22;9322;50.932;5.318;2022-07-23T12:56:20;31.50;32.80
18392;DHT22;9322;50.932;5.318;2022-07-23T12:59:06;31.40;34.00
18392;DHT22;9322;50.932;5.318;2022-07-23T13:01:37;31.20;34.10
18392;DHT22;9322;50.932;5.318;2022-07-23T13:04:17;31.50;33.00
18392;DHT22;9322;50.932;5.318;2022-07-23T13:09:18;31.30;34.90
18392;DHT22;9322;50.932;5.318;2022-07-23T13:11:45;30.80;34.80
18392;DHT22;9322;50.932;5.318;2022-07-23T13:14:12;30.50;35.50
18392;DHT22;9322;50.932;5.318;2022-07-23T13:16:39;30.80;35.00
18392;DHT22;9322;50.932;5.318;2022-07-23T13:19:05;30.40;35.10
18392;DHT22;9322;50.932;5.318;2022-07-23T13:21:32;30.00;36.70
18392;DHT22;9322;50.932;5.318;2022-07-23T13:23:58;30.30;35.60
18392;DHT22;9322;50.932;5.318;2022-07-23T13:26:25;30.30;36.00
18392;DHT22;9322;50.932;5.318;2022-07-23T13:28:51;29.50;36.60
18392;DHT22;9322;50.932;5.318;2022-07-23T13:31:17;29.70;37.00
18392;DHT22;9322;50.932;5.318;2022-07-23T13:33:43;30.10;38.60
18392;DHT22;9322;50.932;5.318;2022-07-23T13:36:08;30.20;38.10
18392;DHT22;9322;50.932;5.318;2022-07-23T13:38:34;30.30;36.20
18392;DHT22;9322;50.932;5.318;2022-07-23T13:41:00;30.70;34.90
18392;DHT22;9322;50.932;5.318;2022-07-23T13:43:28;30.50;37.50
18392;DHT22;9322;50.932;5.318;2022-07-23T13:45:54;30.50;37.80
18392;DHT22;9322;50.932;5.318;2022-07-23T13:48:20;30.80;36.70
18392;DHT22;9322;50.932;5.318;2022-07-23T13:50:47;30.80;37.50
18392;DHT22;9322;50.932;5.318;2022-07-23T13:53:18;30.70;37.20
18392;DHT22;9322;50.932;5.318;2022-07-23T13:55:44;30.40;37.80
18392;DHT22;9322;50.932;5.318;2022-07-23T13:58:11;30.30;38.50
18392;DHT22;9322;50.932;5.318;2022-07-23T14:00:39;30.10;37.10
18392;DHT22;9322;50.932;5.318;2022-07-23T14:03:05;30.40;37.00
18392;DHT22;9322;50.932;5.318;2022-07-23T14:05:31;30.30;37.00
18392;DHT22;9322;50.932;5.318;2022-07-23T14:07:57;30.00;38.50
18392;DHT22;9322;50.932;5.318;2022-07-23T14:10:24;30.10;38.80
18392;DHT22;9322;50.932;5.318;2022-07-23T14:12:51;30.20;37.20
18392;DHT22;9322;50.932;5.318;2022-07-23T14:15:18;30.40;36.60
18392;DHT22;9322;50.932;5.318;2022-07-23T14:17:45;30.50;35.90
18392;DHT22;9322;50.932;5.318;2022-07-23T14:20:12;30.20;37.20
18392;DHT22;9322;50.932;5.318;2022-07-23T14:22:38;30.20;36.90
18392;DHT22;9322;50.932;5.318;2022-07-23T14:25:05;30.20;38.40
18392;DHT22;9322;50.932;5.318;2022-07-23T14:27:31;30.50;37.30
18392;DHT22;9322;50.932;5.318;2022-07-23T14:29:57;30.70;36.50
18392;DHT22;9322;50.932;5.318;2022-07-23T14:32:23;30.40;36.80
18392;DHT22;9322;50.932;5.318;2022-07-23T14:34:49;30.30;38.50
18392;DHT22;9322;50.932;5.318;2022-07-23T14:37:16;30.10;37.20
18392;DHT22;9322;50.932;5.318;2022-07-23T14:39:42;30.10;37.60
18392;DHT22;9322;50.932;5.318;2022-07-23T14:42:09;29.90;37.20
18392;DHT22;9322;50.932;5.318;2022-07-23T14:44:36;30.00;39.30
18392;DHT22;9322;50.932;5.318;2022-07-23T14:47:03;30.20;38.90
18392;DHT22;9322;50.932;5.318;2022-07-23T14:49:33;30.10;38.00
18392;DHT22;9322;50.932;5.318;2022-07-23T14:51:59;30.10;37.50
18392;DHT22;9322;50.932;5.318;2022-07-23T14:54:26;29.70;38.50
18392;DHT22;9322;50.932;5.318;2022-07-23T14:56:53;29.80;38.20
18392;DHT22;9322;50.932;5.318;2022-07-23T14:59:19;29.80;38.60
18392;DHT22;9322;50.932;5.318;2022-07-23T15:01:46;29.40;39.70
18392;DHT22;9322;50.932;5.318;2022-07-23T15:04:12;29.60;39.50
18392;DHT22;9322;50.932;5.318;2022-07-23T15:06:38;29.60;39.60
18392;DHT22;9322;50.932;5.318;2022-07-23T15:09:04;29.70;38.90
18392;DHT22;9322;50.932;5.318;2022-07-23T15:11:30;29.50;39.00
18392;DHT22;9322;50.932;5.318;2022-07-23T15:13:59;29.40;39.70
18392;DHT22;9322;50.932;5.318;2022-07-23T15:16:27;29.60;39.00
18392;DHT22;9322;50.932;5.318;2022-07-23T15:18:53;29.60;39.20
18392;DHT22;9322;50.932;5.318;2022-07-23T15:21:19;29.40;39.10
18392;DHT22;9322;50.932;5.318;2022-07-23T15:23:44;29.70;39.30
18392;DHT22;9322;50.932;5.318;2022-07-23T15:26:10;29.80;38.40
18392;DHT22;9322;50.932;5.318;2022-07-23T15:28:36;29.80;39.50
18392;DHT22;9322;50.932;5.318;2022-07-23T15:31:02;29.90;38.80
18392;DHT22;9322;50.932;5.318;2022-07-23T15:33:28;29.60;39.30
18392;DHT22;9322;50.932;5.318;2022-07-23T15:35:54;29.80;39.90
18392;DHT22;9322;50.932;5.318;2022-07-23T15:38:22;29.90;38.60
18392;DHT22;9322;50.932;5.318;2022-07-23T15:40:47;30.20;38.80
18392;DHT22;9322;50.932;5.318;2022-07-23T15:43:13;30.20;38.60
18392;DHT22;9322;50.932;5.318;2022-07-23T15:45:39;30.10;38.50
18392;DHT22;9322;50.932;5.318;2022-07-23T15:48:05;29.90;38.80
18392;DHT22;9322;50.932;5.318;2022-07-23T15:50:31;29.50;39.80
18392;DHT22;9322;50.932;5.318;2022-07-23T15:52:57;29.30;39.10
18392;DHT22;9322;50.932;5.318;2022-07-23T15:55:22;29.20;39.50
18392;DHT22;9322;50.932;5.318;2022-07-23T15:57:49;29.20;39.00
18392;DHT22;9322;50.932;5.318;2022-07-23T16:00:16;29.10;39.90
18392;DHT22;9322;50.932;5.318;2022-07-23T16:02:42;29.30;39.20
18392;DHT22;9322;50.932;5.318;2022-07-23T16:05:07;29.30;39.50
18392;DHT22;9322;50.932;5.318;2022-07-23T16:07:34;29.50;38.80
18392;DHT22;9322;50.932;5.318;2022-07-23T16:10:06;29.60;39.10
18392;DHT22;9322;50.932;5.318;2022-07-23T16:12:31;29.70;39.00
18392;DHT22;9322;50.932;5.318;2022-07-23T16:14:57;29.70;37.60
18392;DHT22;9322;50.932;5.318;2022-07-23T16:17:23;29.80;38.00
18392;DHT22;9322;50.932;5.318;2022-07-23T16:19:48;29.80;38.30
18392;DHT22;9322;50.932;5.318;2022-07-23T16:22:14;29.80;38.70
18392;DHT22;9322;50.932;5.318;2022-07-23T16:24:43;29.50;37.90
18392;DHT22;9322;50.932;5.318;2022-07-23T16:27:09;29.50;38.80
18392;DHT22;9322;50.932;5.318;2022-07-23T16:29:35;29.10;38.40
18392;DHT22;9322;50.932;5.318;2022-07-23T16:32:01;28.70;39.10
18392;DHT22;9322;50.932;5.318;2022-07-23T16:34:26;28.80;40.50
18392;DHT22;9322;50.932;5.318;2022-07-23T16:36:52;28.90;39.60
18392;DHT22;9322;50.932;5.318;2022-07-23T16:39:18;28.80;39.20
18392;DHT22;9322;50.932;5.318;2022-07-23T16:41:43;28.60;39.80
18392;DHT22;9322;50.932;5.318;2022-07-23T16:44:09;28.70;39.30